createdAt,value
2023-05-02T00:01:21.723Z,16.60
2023-05-02T00:03:49.048Z,16.60
2023-05-02T00:06:16.183Z,16.60
2023-05-02T00:08:43.393Z,16.60
2023-05-02T00:11:10.425Z,16.60
2023-05-02T00:13:37.426Z,16.60
2023-05-02T00:16:04.799Z,16.60
2023-05-02T00:18:31.766Z,16.70
2023-05-02T00:20:58.698Z,16.70
2023-05-02T00:23:25.690Z,16.70
2023-05-02T00:25:52.619Z,16.70
2023-05-02T00:28:19.560Z,16.80
2023-05-02T00:30:47.232Z,16.80
2023-05-02T00:33:15.872Z,16.80
2023-05-02T00:35:43.005Z,16.80
2023-05-02T00:38:10.052Z,16.90
2023-05-02T00:40:48.240Z,16.90
2023-05-02T00:43:16.240Z,16.90
2023-05-02T00:45:45.570Z,17.00
2023-05-02T00:48:13.220Z,17.00
2023-05-02T00:50:43.524Z,17.00
2023-05-02T00:53:11.244Z,17.10
2023-05-02T00:55:38.781Z,17.10
2023-05-02T00:58:11.732Z,17.10
2023-05-02T01:01:21.349Z,17.10
2023-05-02T01:04:02.501Z,17.10
2023-05-02T01:06:48.463Z,17.10
2023-05-02T01:09:42.401Z,17.10
2023-05-02T01:12:19.878Z,17.20
2023-05-02T01:14:51.865Z,17.10
2023-05-02T01:17:21.366Z,17.20
2023-05-02T01:19:54.111Z,17.10
2023-05-02T01:22:22.507Z,17.10
2023-05-02T01:24:54.536Z,17.20
2023-05-02T01:28:00.181Z,17.20
2023-05-02T01:30:29.505Z,17.20
2023-05-02T01:32:59.102Z,17.20
2023-05-02T01:35:27.884Z,17.20
2023-05-02T01:37:57.462Z,17.30
2023-05-02T01:40:26.457Z,17.20
2023-05-02T01:42:55.080Z,17.20
2023-05-02T01:45:24.027Z,17.20
2023-05-02T01:47:52.074Z,17.20
2023-05-02T01:50:23.295Z,17.20
2023-05-02T01:52:53.624Z,17.20
2023-05-02T01:55:20.803Z,17.20
2023-05-02T01:57:50.562Z,17.20
2023-05-02T02:00:18.801Z,17.20
2023-05-02T02:02:46.713Z,17.20
2023-05-02T02:05:14.775Z,17.30
2023-05-02T02:07:43.621Z,17.30
2023-05-02T02:10:10.929Z,17.20
2023-05-02T02:12:43.901Z,17.20
2023-05-02T02:15:34.366Z,17.20
2023-05-02T02:18:14.744Z,17.20
2023-05-02T02:20:45.121Z,17.10
2023-05-02T02:23:13.470Z,17.10
2023-05-02T02:25:40.915Z,17.10
2023-05-02T02:28:08.259Z,17.10
2023-05-02T02:30:35.377Z,17.10
2023-05-02T02:33:02.434Z,17.10
2023-05-02T02:35:37.459Z,17.10
2023-05-02T02:38:19.433Z,17.10
2023-05-02T02:41:02.642Z,17.10
2023-05-02T02:43:51.099Z,17.10
2023-05-02T02:46:38.379Z,17.00
2023-05-02T02:49:35.726Z,17.10
2023-05-02T02:52:15.609Z,17.10
2023-05-02T02:54:50.193Z,17.00
2023-05-02T02:57:35.800Z,17.10
2023-05-02T03:00:21.254Z,17.10
2023-05-02T03:02:48.901Z,17.00
2023-05-02T03:05:16.556Z,17.10
2023-05-02T03:07:43.882Z,17.10
2023-05-02T03:10:11.969Z,17.10
2023-05-02T03:12:40.323Z,17.10
2023-05-02T03:15:34.033Z,17.10
2023-05-02T03:18:01.644Z,17.10
2023-05-02T03:20:29.181Z,17.00
2023-05-02T03:22:56.176Z,17.00
2023-05-02T03:25:23.113Z,17.00
2023-05-02T03:27:50.740Z,17.00
2023-05-02T03:30:18.047Z,17.10
2023-05-02T03:32:45.303Z,17.10
2023-05-02T03:35:12.708Z,17.00
2023-05-02T03:37:43.800Z,17.00
2023-05-02T03:40:11.228Z,17.00
2023-05-02T03:42:41.428Z,17.00
2023-05-02T03:45:19.682Z,17.00
2023-05-02T03:47:47.749Z,17.00
2023-05-02T03:50:15.383Z,17.00
2023-05-02T03:52:46.885Z,17.00
2023-05-02T03:55:15.115Z,17.00
2023-05-02T03:57:42.194Z,17.00
2023-05-02T04:00:12.510Z,16.90
2023-05-02T04:02:39.537Z,16.90
2023-05-02T04:05:11.113Z,16.90
2023-05-02T04:07:39.332Z,16.90
2023-05-02T04:10:07.970Z,16.90
2023-05-02T04:12:40.148Z,16.90
2023-05-02T04:15:08.089Z,16.80
2023-05-02T04:17:35.039Z,16.90
2023-05-02T04:20:05.364Z,16.90
2023-05-02T04:22:34.909Z,16.90
2023-05-02T04:25:06.479Z,16.90
2023-05-02T04:27:35.705Z,16.90
2023-05-02T04:30:03.496Z,16.90
2023-05-02T04:32:31.501Z,16.90
2023-05-02T04:34:59.951Z,16.90
2023-05-02T04:37:27.187Z,16.90
2023-05-02T04:39:54.134Z,16.90
2023-05-02T04:42:25.094Z,16.80
2023-05-02T04:45:14.662Z,16.80
2023-05-02T04:47:43.761Z,16.80
2023-05-02T04:50:10.910Z,16.80
2023-05-02T04:52:38.076Z,16.90
2023-05-02T04:55:05.691Z,16.90
2023-05-02T04:57:32.652Z,16.80
2023-05-02T05:00:01.593Z,16.90
2023-05-02T05:02:30.512Z,16.80
2023-05-02T05:04:58.264Z,16.80
2023-05-02T05:07:25.718Z,16.80
2023-05-02T05:09:54.228Z,16.80
2023-05-02T05:12:24.068Z,16.80
2023-05-02T05:14:51.133Z,16.90
2023-05-02T05:17:19.695Z,16.90
2023-05-02T05:19:47.362Z,16.90
2023-05-02T05:22:14.294Z,17.00
2023-05-02T05:24:41.648Z,17.00
2023-05-02T05:27:08.640Z,17.00
2023-05-02T05:29:36.199Z,16.90
2023-05-02T05:32:03.365Z,17.00
2023-05-02T05:34:30.994Z,17.00
2023-05-02T05:37:00.888Z,16.90
2023-05-02T05:39:28.258Z,17.00
2023-05-02T05:41:57.603Z,17.00
2023-05-02T05:44:25.859Z,17.00
2023-05-02T05:46:53.117Z,17.00
2023-05-02T05:49:22.393Z,17.00
2023-05-02T05:51:50.133Z,17.00
2023-05-02T05:54:18.916Z,17.00
2023-05-02T05:56:46.312Z,17.10
2023-05-02T05:59:16.987Z,17.10
2023-05-02T06:01:43.954Z,17.10
2023-05-02T06:04:12.360Z,17.10
2023-05-02T06:06:43.488Z,17.10
2023-05-02T06:09:10.663Z,17.10
2023-05-02T06:11:38.353Z,17.10
2023-05-02T06:14:06.505Z,17.00
2023-05-02T06:16:33.854Z,17.00
2023-05-02T06:19:00.941Z,17.00
2023-05-02T06:21:27.913Z,17.10
2023-05-02T06:23:54.968Z,17.10
2023-05-02T06:26:22.191Z,17.10
2023-05-02T06:28:49.539Z,17.00
2023-05-02T06:31:17.095Z,17.00
2023-05-02T06:33:44.071Z,17.00
2023-05-02T06:36:11.044Z,16.90
2023-05-02T06:38:38.132Z,16.90
2023-05-02T06:41:05.056Z,17.00
2023-05-02T06:43:32.937Z,17.00
2023-05-02T06:46:01.378Z,17.00
2023-05-02T06:48:28.328Z,17.00
2023-05-02T06:50:55.407Z,17.10
2023-05-02T06:53:22.384Z,17.10
2023-05-02T06:55:49.666Z,17.00
2023-05-02T06:58:16.959Z,17.10
2023-05-02T07:00:43.934Z,17.10
2023-05-02T07:03:14.050Z,17.00
2023-05-02T07:05:41.486Z,17.00
2023-05-02T07:08:09.336Z,17.10
2023-05-02T07:10:36.769Z,17.10
2023-05-02T07:13:03.895Z,17.10
2023-05-02T07:15:31.055Z,17.20
2023-05-02T07:17:58.032Z,17.20
2023-05-02T07:20:25.070Z,17.20
2023-05-02T07:22:52.034Z,17.30
2023-05-02T07:25:19.080Z,17.40
2023-05-02T07:27:46.396Z,17.40
2023-05-02T07:30:13.696Z,17.40
2023-05-02T07:32:40.873Z,17.40
2023-05-02T07:35:08.905Z,17.30
2023-05-02T07:37:36.435Z,17.30
2023-05-02T07:40:04.588Z,17.30
2023-05-02T07:42:32.030Z,17.30
2023-05-02T07:45:00.091Z,17.30
2023-05-02T07:47:27.583Z,17.40
2023-05-02T07:49:55.788Z,17.40
2023-05-02T07:52:23.061Z,17.50
2023-05-02T07:54:50.684Z,17.50
2023-05-02T07:57:18.346Z,17.60
2023-05-02T07:59:46.056Z,17.60
2023-05-02T08:02:14.039Z,17.60
2023-05-02T08:04:41.453Z,17.80
2023-05-02T08:07:09.112Z,18.00
2023-05-02T08:09:36.154Z,18.10
2023-05-02T08:12:03.331Z,18.20
2023-05-02T08:14:31.617Z,18.30
2023-05-02T08:16:59.811Z,18.30
2023-05-02T08:19:27.252Z,18.20
2023-05-02T08:21:55.032Z,18.30
2023-05-02T08:24:22.571Z,18.40
2023-05-02T08:26:49.920Z,18.40
2023-05-02T08:29:17.160Z,18.50
2023-05-02T08:31:44.180Z,18.50
2023-05-02T08:34:11.189Z,18.50
2023-05-02T08:36:38.180Z,18.50
2023-05-02T08:39:05.311Z,18.50
2023-05-02T08:41:32.468Z,18.60
2023-05-02T08:43:59.985Z,18.70
2023-05-02T08:46:28.664Z,18.80
2023-05-02T08:48:59.115Z,18.90
2023-05-02T08:51:29.145Z,19.00
2023-05-02T08:53:58.161Z,19.00
2023-05-02T08:56:25.373Z,19.00
2023-05-02T08:58:53.299Z,19.00
2023-05-02T09:01:23.969Z,18.90
2023-05-02T09:03:52.417Z,18.80
2023-05-02T09:06:23.082Z,18.60
2023-05-02T09:08:54.489Z,18.70
2023-05-02T09:11:22.213Z,18.70
2023-05-02T09:13:51.487Z,18.70
2023-05-02T09:16:22.857Z,18.70
2023-05-02T09:18:57.859Z,18.60
2023-05-02T09:21:26.788Z,18.70
2023-05-02T09:23:59.114Z,18.70
2023-05-02T09:26:31.079Z,18.60
2023-05-02T09:29:01.043Z,18.50
2023-05-02T09:34:12.556Z,18.60
2023-05-02T09:36:45.125Z,18.70
2023-05-02T09:39:15.100Z,18.60
2023-05-02T09:41:46.835Z,18.50
2023-05-02T09:44:15.759Z,18.40
2023-05-02T09:46:47.422Z,18.30
2023-05-02T09:49:15.154Z,18.30
2023-05-02T09:51:44.034Z,18.20
2023-05-02T09:54:11.382Z,18.20
2023-05-02T09:56:57.787Z,18.20
2023-05-02T09:59:25.747Z,18.30
2023-05-02T10:02:01.443Z,18.40
2023-05-02T10:04:30.961Z,18.40
2023-05-02T10:06:58.606Z,18.40
2023-05-02T10:09:27.506Z,18.40
2023-05-02T10:11:56.590Z,18.50
2023-05-02T10:14:27.810Z,18.50
2023-05-02T10:16:59.486Z,18.60
2023-05-02T10:19:56.925Z,18.60
2023-05-02T10:22:25.068Z,18.60
2023-05-02T10:24:53.343Z,18.50
2023-05-02T10:27:20.496Z,18.60
2023-05-02T10:29:47.638Z,18.60
2023-05-02T10:32:19.253Z,18.50
2023-05-02T10:34:47.628Z,18.50
2023-05-02T10:37:16.092Z,18.50
2023-05-02T10:39:43.168Z,18.60
2023-05-02T10:42:10.678Z,18.80
2023-05-02T10:44:39.946Z,18.80
2023-05-02T10:47:24.027Z,18.70
2023-05-02T10:49:55.638Z,18.60
2023-05-02T10:52:31.661Z,18.60
2023-05-02T10:55:30.979Z,18.60
2023-05-02T10:58:00.566Z,18.70
2023-05-02T11:00:30.213Z,18.70
2023-05-02T11:02:57.560Z,18.60
2023-05-02T11:05:26.305Z,18.60
2023-05-02T11:08:28.162Z,18.50
2023-05-02T11:10:55.136Z,18.50
2023-05-02T11:13:51.600Z,18.50
2023-05-02T11:16:18.717Z,18.50
2023-05-02T11:19:01.496Z,18.40
2023-05-02T11:21:30.159Z,18.40
2023-05-02T11:24:34.172Z,18.50
2023-05-02T11:27:31.373Z,18.70
2023-05-02T11:30:00.013Z,18.70
2023-05-02T11:32:48.803Z,18.70
2023-05-02T11:35:20.297Z,18.70
2023-05-02T11:38:10.491Z,18.70
2023-05-02T11:40:37.557Z,18.80
2023-05-02T11:43:15.604Z,18.70
2023-05-02T11:45:43.776Z,18.60
2023-05-02T11:48:15.751Z,18.50
2023-05-02T11:50:50.611Z,18.40
2023-05-02T11:53:22.332Z,18.50
2023-05-02T11:56:09.625Z,18.50
2023-05-02T11:58:36.603Z,18.50
2023-05-02T12:01:16.464Z,18.40
2023-05-02T12:03:43.919Z,18.30
2023-05-02T12:06:12.671Z,18.40
2023-05-02T12:08:41.537Z,18.50
2023-05-02T12:11:09.371Z,18.50
2023-05-02T12:13:45.955Z,18.60
2023-05-02T12:16:13.520Z,18.70
2023-05-02T12:18:40.996Z,18.80
2023-05-02T12:21:08.678Z,18.70
2023-05-02T12:23:37.409Z,18.80
2023-05-02T12:26:22.069Z,18.80
2023-05-02T12:28:50.910Z,18.70
2023-05-02T12:31:18.427Z,18.70
2023-05-02T12:33:51.010Z,18.70
2023-05-02T12:36:21.078Z,18.70
2023-05-02T12:38:51.013Z,18.70
2023-05-02T12:41:18.026Z,18.70
2023-05-02T12:43:49.244Z,18.90
2023-05-02T12:46:16.557Z,18.90
2023-05-02T12:48:44.954Z,18.90
2023-05-02T12:51:23.878Z,19.00
2023-05-02T12:53:50.909Z,19.00
2023-05-02T12:56:18.052Z,18.90
2023-05-02T12:58:47.295Z,18.90
2023-05-02T13:01:15.490Z,19.00
2023-05-02T13:03:44.046Z,19.10
2023-05-02T13:06:14.307Z,19.20
2023-05-02T13:08:41.618Z,19.20
2023-05-02T13:11:09.151Z,19.20
2023-05-02T13:13:36.215Z,19.00
2023-05-02T13:16:03.701Z,19.00
2023-05-02T13:18:30.846Z,19.10
2023-05-02T13:20:57.808Z,19.00
2023-05-02T13:23:24.811Z,18.90
2023-05-02T13:25:51.832Z,18.70
2023-05-02T13:28:19.183Z,18.80
2023-05-02T13:30:46.181Z,18.80
2023-05-02T13:33:13.315Z,18.80
2023-05-02T13:35:40.624Z,18.90
2023-05-02T13:38:07.665Z,19.00
2023-05-02T13:40:34.767Z,19.10
2023-05-02T13:43:01.685Z,19.10
2023-05-02T13:45:28.769Z,19.30
2023-05-02T13:47:55.789Z,19.20
2023-05-02T13:50:22.835Z,19.10
2023-05-02T13:52:49.795Z,19.10
2023-05-02T13:55:17.042Z,19.10
2023-05-02T13:57:44.156Z,18.90
2023-05-02T14:00:11.824Z,18.90
2023-05-02T14:02:39.397Z,18.90
2023-05-02T14:05:07.149Z,18.90
2023-05-02T14:07:34.092Z,19.00
2023-05-02T14:10:01.382Z,19.00
2023-05-02T14:12:29.048Z,19.10
2023-05-02T14:14:56.157Z,19.10
2023-05-02T14:17:25.234Z,19.10
2023-05-02T14:19:52.539Z,19.10
2023-05-02T14:22:19.488Z,19.20
2023-05-02T14:24:46.697Z,19.20
2023-05-02T14:27:18.149Z,19.20
2023-05-02T14:29:46.571Z,19.10
2023-05-02T14:32:14.215Z,19.20
2023-05-02T14:34:42.067Z,19.20
2023-05-02T14:37:09.383Z,19.10
2023-05-02T14:39:36.946Z,19.10
2023-05-02T14:42:04.690Z,18.90
2023-05-02T14:44:31.853Z,18.80
2023-05-02T14:46:58.932Z,18.70
2023-05-02T14:49:27.130Z,18.70
2023-05-02T14:51:55.641Z,18.70
2023-05-02T14:54:28.642Z,18.60
2023-05-02T14:56:55.967Z,18.80
2023-05-02T14:59:23.389Z,18.80
2023-05-02T15:01:51.938Z,18.90
2023-05-02T15:04:19.938Z,18.90
2023-05-02T15:06:48.228Z,19.00
2023-05-02T15:09:16.153Z,19.10
2023-05-02T15:11:44.146Z,19.20
2023-05-02T15:14:11.135Z,19.20
2023-05-02T15:16:39.296Z,19.20
2023-05-02T15:19:06.416Z,19.10
2023-05-02T15:21:34.226Z,19.20
2023-05-02T15:24:02.577Z,19.10
2023-05-02T15:26:30.158Z,19.10
2023-05-02T15:28:57.160Z,19.10
2023-05-02T15:31:24.449Z,19.10
2023-05-02T15:33:51.778Z,19.10
2023-05-02T15:36:18.948Z,19.10
2023-05-02T15:38:45.928Z,19.10
2023-05-02T15:41:12.863Z,19.10
2023-05-02T15:43:40.004Z,19.10
2023-05-02T15:46:07.033Z,19.10
2023-05-02T15:48:35.092Z,19.20
2023-05-02T15:51:03.190Z,19.10
2023-05-02T15:53:30.349Z,19.10
2023-05-02T15:55:57.419Z,19.20
2023-05-02T15:58:24.394Z,19.10
2023-05-02T16:00:52.566Z,19.00
2023-05-02T16:03:19.986Z,19.00
2023-05-02T16:05:47.300Z,19.00
2023-05-02T16:08:14.267Z,19.10
2023-05-02T16:10:43.425Z,19.00
2023-05-02T16:13:10.874Z,19.00
2023-05-02T16:15:38.637Z,19.00
2023-05-02T16:18:05.895Z,19.10
2023-05-02T16:20:36.493Z,19.10
2023-05-02T16:23:05.436Z,19.10
2023-05-02T16:25:32.716Z,19.00
2023-05-02T16:28:01.075Z,18.90
2023-05-02T16:30:28.505Z,18.90
2023-05-02T16:32:55.526Z,18.90
2023-05-02T16:35:22.664Z,18.70
2023-05-02T16:37:49.916Z,18.70
2023-05-02T16:40:17.046Z,18.80
2023-05-02T16:42:44.127Z,18.80
2023-05-02T16:45:11.263Z,18.90
2023-05-02T16:47:38.566Z,19.00
2023-05-02T16:50:06.662Z,19.00
2023-05-02T16:52:36.846Z,19.00
2023-05-02T16:55:04.744Z,19.10
2023-05-02T16:57:31.706Z,19.10
2023-05-02T16:59:59.212Z,19.10
2023-05-02T17:02:26.724Z,19.00
2023-05-02T17:04:54.056Z,19.00
2023-05-02T17:07:21.225Z,18.90
2023-05-02T17:09:48.393Z,18.90
2023-05-02T17:12:18.746Z,18.80
2023-05-02T17:14:46.141Z,18.60
2023-05-02T17:17:13.073Z,18.60
2023-05-02T17:19:40.234Z,18.70
2023-05-02T17:22:07.309Z,18.70
2023-05-02T17:24:34.674Z,18.90
2023-05-02T17:27:02.823Z,19.00
2023-05-02T17:29:30.179Z,19.10
2023-05-02T17:32:00.053Z,19.10
2023-05-02T17:34:28.885Z,19.20
2023-05-02T17:36:56.316Z,19.20
2023-05-02T17:39:23.441Z,19.00
2023-05-02T17:41:50.700Z,18.90
2023-05-02T17:44:18.528Z,19.00
2023-05-02T17:46:46.701Z,19.10
2023-05-02T17:49:13.773Z,19.20
2023-05-02T17:51:40.957Z,19.20
2023-05-02T17:54:07.967Z,19.20
2023-05-02T17:56:36.747Z,19.30
2023-05-02T17:59:07.039Z,19.10
2023-05-02T18:01:34.090Z,19.10
2023-05-02T18:04:01.463Z,19.10
2023-05-02T18:06:28.774Z,19.20
2023-05-02T18:08:56.169Z,19.20
2023-05-02T18:11:24.425Z,19.20
2023-05-02T18:13:51.965Z,19.20
2023-05-02T18:16:19.738Z,19.30
2023-05-02T18:18:46.804Z,19.40
2023-05-02T18:21:21.565Z,19.30
2023-05-02T18:23:48.787Z,19.30
2023-05-02T18:26:21.346Z,19.20
2023-05-02T18:28:53.163Z,19.10
2023-05-02T18:31:21.200Z,19.10
2023-05-02T18:33:48.326Z,19.00
2023-05-02T18:36:20.705Z,18.90
2023-05-02T18:38:47.734Z,19.00
2023-05-02T18:41:15.445Z,19.00
2023-05-02T18:43:42.660Z,18.80
2023-05-02T18:46:09.803Z,18.80
2023-05-02T18:48:36.991Z,18.70
2023-05-02T18:51:04.728Z,18.70
2023-05-02T18:53:32.202Z,18.70
2023-05-02T18:55:59.306Z,18.60
2023-05-02T18:58:26.868Z,18.50
2023-05-02T19:00:53.970Z,18.50
2023-05-02T19:03:23.928Z,18.50
2023-05-02T19:05:58.793Z,18.50
2023-05-02T19:08:25.723Z,18.40
2023-05-02T19:10:52.638Z,18.40
2023-05-02T19:13:19.972Z,18.40
2023-05-02T19:15:48.099Z,18.30
2023-05-02T19:18:15.415Z,18.20
2023-05-02T19:20:42.448Z,18.20
2023-05-02T19:23:19.749Z,18.20
2023-05-02T19:25:47.324Z,18.10
2023-05-02T19:28:15.953Z,18.00
2023-05-02T19:30:45.762Z,18.00
2023-05-02T19:33:12.890Z,17.90
2023-05-02T19:35:40.289Z,17.80
2023-05-02T19:38:07.430Z,17.90
2023-05-02T19:40:34.508Z,17.80
2023-05-02T19:43:01.489Z,17.80
2023-05-02T19:45:28.525Z,17.70
2023-05-02T19:47:56.266Z,17.70
2023-05-02T19:50:25.739Z,17.60
2023-05-02T19:52:52.923Z,17.60
2023-05-02T19:55:20.807Z,17.70
2023-05-02T19:57:48.804Z,17.60
2023-05-02T20:00:16.220Z,17.60
2023-05-02T20:02:44.808Z,17.60
2023-05-02T20:05:12.313Z,17.50
2023-05-02T20:07:39.220Z,17.50
2023-05-02T20:10:06.864Z,17.40
2023-05-02T20:12:33.850Z,17.40
2023-05-02T20:15:00.812Z,17.40
2023-05-02T20:17:27.758Z,17.30
2023-05-02T20:19:54.829Z,17.30
2023-05-02T20:22:22.132Z,17.30
2023-05-02T20:24:49.141Z,17.20
2023-05-02T20:27:16.111Z,17.20
2023-05-02T20:29:43.215Z,17.20
2023-05-02T20:32:10.419Z,17.10
2023-05-02T20:34:39.149Z,17.10
2023-05-02T20:37:11.712Z,17.10
2023-05-02T20:39:38.909Z,17.00
2023-05-02T20:42:05.942Z,16.90
2023-05-02T20:44:36.605Z,16.90
2023-05-02T20:47:04.023Z,16.90
2023-05-02T20:49:32.410Z,17.00
2023-05-02T20:52:04.991Z,17.00
2023-05-02T20:54:31.881Z,16.90
2023-05-02T20:56:58.875Z,16.90
2023-05-02T20:59:26.101Z,16.90
2023-05-02T21:01:53.091Z,16.80
2023-05-02T21:04:20.299Z,16.70
2023-05-02T21:06:47.596Z,16.70
2023-05-02T21:09:16.027Z,16.60
2023-05-02T21:11:43.636Z,16.30
2023-05-02T21:14:11.843Z,16.30
2023-05-02T21:16:38.829Z,16.30
2023-05-02T21:19:05.783Z,16.30
2023-05-02T21:21:32.788Z,16.40
2023-05-02T21:23:59.927Z,16.40
2023-05-02T21:26:27.019Z,16.50
2023-05-02T21:28:54.081Z,16.50
2023-05-02T21:31:21.183Z,16.50
2023-05-02T21:33:48.156Z,16.50
2023-05-02T21:36:15.461Z,16.50
2023-05-02T21:38:42.464Z,16.50
2023-05-02T21:41:09.563Z,16.50
2023-05-02T21:43:39.468Z,16.50
2023-05-02T21:46:06.788Z,16.50
2023-05-02T21:48:34.261Z,16.40
2023-05-02T21:51:01.821Z,16.40
2023-05-02T21:53:28.787Z,16.40
2023-05-02T21:55:55.777Z,16.30
2023-05-02T21:58:22.677Z,16.30
2023-05-02T22:00:49.857Z,16.20
2023-05-02T22:03:16.899Z,16.20
2023-05-02T22:05:45.480Z,16.20
2023-05-02T22:08:13.519Z,16.20
2023-05-02T22:10:42.482Z,16.10
2023-05-02T22:13:14.043Z,16.00
2023-05-02T22:16:03.979Z,16.00
2023-05-02T22:18:31.029Z,15.90
2023-05-02T22:20:58.688Z,16.00
2023-05-02T22:23:25.728Z,16.00
2023-05-02T22:25:52.965Z,16.00
2023-05-02T22:28:19.941Z,16.00
2023-05-02T22:30:47.076Z,16.00
2023-05-02T22:33:14.260Z,16.00
2023-05-02T22:35:41.404Z,15.90
2023-05-02T22:38:14.524Z,15.90
2023-05-02T22:40:42.210Z,15.90
2023-05-02T22:43:09.212Z,15.90
2023-05-02T22:45:37.348Z,15.90
2023-05-02T22:48:05.679Z,15.80
2023-05-02T22:50:32.714Z,15.70
2023-05-02T22:53:00.212Z,15.80
2023-05-02T22:55:27.255Z,15.80
2023-05-02T22:57:54.253Z,15.70
2023-05-02T23:00:23.603Z,15.70
2023-05-02T23:02:50.615Z,15.70
2023-05-02T23:05:17.592Z,15.70
2023-05-02T23:07:44.737Z,15.70
2023-05-02T23:10:11.650Z,15.70
2023-05-02T23:12:39.191Z,15.70
2023-05-02T23:15:07.261Z,15.70
2023-05-02T23:17:38.288Z,15.60
2023-05-02T23:20:06.349Z,15.60
2023-05-02T23:22:36.580Z,15.60
2023-05-02T23:25:04.023Z,15.50
2023-05-02T23:27:30.930Z,15.60
2023-05-02T23:29:57.967Z,15.50
2023-05-02T23:32:25.168Z,15.60
2023-05-02T23:34:52.115Z,15.50
2023-05-02T23:37:19.062Z,15.50
2023-05-02T23:39:45.979Z,15.40
2023-05-02T23:42:12.936Z,15.30
2023-05-02T23:44:40.251Z,15.30
2023-05-02T23:47:07.551Z,15.30
2023-05-02T23:49:34.552Z,15.20
2023-05-02T23:52:02.739Z,15.20
2023-05-02T23:54:31.949Z,15.30
2023-05-02T23:57:00.726Z,15.20
2023-05-02T23:59:27.645Z,15.20
